Dakota, Illinois
Current Conditions -  °F | °C
As of 2:15 AM on Thursday 18 Dec 2014 (Local Time) from KFEP Reporting Station
Clear Clear  
Wind Chill: 16°   Ceiling: Unl
Heat Index: 16°   Visibility: 7mi
Dew Point: 14°   Wind: 0mph
Humidity: 90%   Direction: NA
Pressure: 30.29"   Gusts: NA
Location:  42.39°N, 89.53°W
Report Text: KFEP 180815Z AUTO 00000KT 7SM CLR M09/M10 A3029 RMK AO2 T10891102
Loading
Personal Weather Stations






























Interactive Weather Map New forecast layout! Learn more

10-Day Weather Forecast

Advertisements
Track Severe Weather on mobile